Terminal Aerodrome Forecast
Issued by NWS

Home | Current Version | Previous Version | Text Only | Print | Product List | Glossary On
Versions: 1 2 3 4 5 6 7 8 9 10 11 12 13 14 15 16 17 18 19
069
FTPA31 PHFO 210520
TAFHKO
TAF
PHKO 210520Z 2106/2206 04015G25KT P6SM FEW025 BKN050
      TEMPO 2106/2107 BKN025
     FM210800 05006KT P6SM FEW025 SCT050
     FM212000 24010KT P6SM SCT060
     FM220200 30010KT P6SM BKN050=

USA.gov is the U.S. government's official web portal to all federal, state and local government web resources and services.